Hovedside
METAR-TAF:

METAR-TAF

Lufthavner :

Lakselv, Norge

Lakselv lufthavn

breddegrad: 70-04N, lengdegrad: 024-59E, høyde over havet: 0 m

Gjeldene værobservasjon

Denne rapporten ble laget for 20 minutter siden, klokken 19:50 UTC
Vind 6 kt fra Nord
Temperatur 2°C
Luftfuktighet 93%
Trykk 1010 hPa
Sikt: 5000 m
Spredte skyer i en høyde av 1200 ft
Brutte skyer i en høyde av 1800 ft
lett regn

METAR: ENNA 281950Z 01006KT 9999 5000S -RA SCT012 BKN018 02/01 Q1010 RMK WIND 1800FT 05007KT

Tid: 22:10 (20:10 UTC)

Varsel

Varsel gyldig fra 28. klokken 18 UTC til 29. klokken 18 UTC
Vind 8 kt fra Nord-nordvest
Sikt 10 km eller mer
Få skyer i en høyde av 1500 ft
Spredte skyer i en høyde av 4000 ft
Sannsynlighet 40%
fra 28. klokken 18 UTC til 29. klokken 12 UTC
Sikt: 2000 m
i en høyde av 900 ft
snøbyger
Blir
fra 29. klokken 12 UTC til 29. klokken 14 UTC
Vind 18 kt fra Nord-nordvest

TAF: ENNA 2818/2918 34008KT 9999 FEW015 SCT040 PROB40 2818/2912 2000 SHSN VV009 BECMG 2912/2914 34018KT

Værobservasjoner og værvarsel for over 4000 flyplasser (METAR- og TAF-rapporter).

Tilgjengelige stasjoner er representert av de røde og gule prikkene på kartet.

Hold musepekeren over prikken for å se navnet på stasjonen.

Klikk så for å se værobservasjoner og -varsler.

For å forandre kartet kan du klikke på den grønne knappen med svart kryss for å zoome inn, på den grønne knappen med strek for å zoome ut, eller på de grønne pilene for å se tilstøtende kart.


METAR-TAF: